Charles Town, WV (25414)

12:16 AM EDT die 02o August, anno 2015 (GMT -0400)
Vinton Farm | | Change Station
CLOSE
Current Station
Personal Weather Stations
Location: Charles Town, WV
Elevation: 522 ft
Nearby Weather Stations

Elev 522 ft 39.27 °N, 77.86 °W | Updated 3 seconds ago

Serena
Serena
67.6 °F
Feels Like 67.6 °F
N
0.0
Ventus Variabilis Ventus from Magis Eurus quam Auster
Gusts 0.0 mph

Hodie
High -- | Low -- °F
--% Chance of Precip.
Yesterday
High -- | Low -- °F
Precip. -- in
6:12 AM 8:22 PM
Waning Gibbous, 96% visible
Pressio 29.91 in
Visibilitas 10.0 milia passuum
Clouds Serena
Frigus in quo Ros apparet 60 °F
Umor 77%
Rainfall 0.00 in
Snow Depth Not available.
UV 0.0 out of 12
Pollen 6.80 out of 12
Air Quality Not available.
Flu Activity Not available.
METAR KMRB 020353Z AUTO 30005KT 10SM CLR 23/13 A2993 RMK AO2 SLP128 T02280128 TSNO

More Conditions Fewer Conditions

Pressio 29.91 in
Visibilitas 10.0 milia passuum
Clouds Serena
Frigus in quo Ros apparet 60 °F
Umor 77%
Rainfall 0.00 in
Snow Depth Not available.
UV 0.0 out of 12
Pollen 6.80 out of 12
Air Quality Not available.
Flu Activity Not available.
METAR KMRB 020353Z AUTO 30005KT 10SM CLR 23/13 A2993 RMK AO2 SLP128 T02280128 TSNO

More Conditions Fewer Conditions

10-Day Weather Forecast

×

Almanac

Astronomy

Aug. 02, 2015 Rise Set
Actual Time
Civil Twilight
Nautical Twilight
Astronomical Twilight
Moon
Length Of Visible Light
Length of Day
Tomorrow will be .
, % of the Moon is Illuminated

Today's Extremes

State Highs State Lows

Community

WunderPhotos

Upload Photos

1,843,182 photos uploaded!

WunderBlogs® & News

Nearby

Air Quality

  Air Quality AQ Index Pollutant
Not available.

Snow Depth

Station Depth Elevation

Earthquake Activity

City Distance Mag. Time & Date
Minimum magnitude displayed is 2.5.

Coastal Water Temperatures

Locus Calor

Stations

Nearby Weather Stations

Station Location Temp Frigus Venti Frigus in quo Ros apparet Umor Ventus Precip. Elev Renovata Type